KAMN

Gratiot Community Airport

Alma, Michigan, USA
METAR KAMN 170255Z AUTO 21006KT 10SM BKN065 08/03 A2994 RMK AO2 T00750033
Observed Flight Rules
Oct-17 @ 02:55 UTC (14 minutes ago) Visual Flight Rules
Wind Visibility Clouds
210° at 6 knots 10 miles
  • Broken at 6,500' AGL
Temperatures Readings
Current 8°C / 46°F
Dewpoint 3°C / 37°F
Humidity 71%
Altimeter 29.94" Hg
Pressure 1014 hPa
Elevation 230
METAR KAMN 170255Z AUTO 21006KT 10SM BKN065 08/03 A2994 RMK AO2 T00750033
Observed Flight Rules
Oct-17 @ 02:55 UTC
(14 minutes ago)
VFR
Wind Visibility
210° at 6 knots 10 miles
Clouds
  • Broken at 6,500' AGL
Temperature Dewpoint
8°C / 46°F 3°C / 37°F
Humidity Altimeter Pressure
71% 29.94" Hg 1014 hPa